createdAt,value
2023-04-04T00:01:17.712Z,74
2023-04-04T00:04:17.765Z,74
2023-04-04T00:07:17.697Z,74
2023-04-04T00:10:17.707Z,74
2023-04-04T00:13:17.704Z,74
2023-04-04T00:16:17.743Z,74
2023-04-04T00:19:17.705Z,74
2023-04-04T00:22:17.700Z,74
2023-04-04T00:25:17.701Z,75
2023-04-04T00:28:17.693Z,75
2023-04-04T00:31:17.768Z,75
2023-04-04T00:34:17.700Z,75
2023-04-04T00:37:17.702Z,75
2023-04-04T00:40:17.700Z,75
2023-04-04T00:43:17.695Z,75
2023-04-04T00:46:17.755Z,75
2023-04-04T00:52:17.715Z,75
2023-04-04T00:55:17.704Z,75
2023-04-04T00:58:17.689Z,75
2023-04-04T01:01:17.698Z,75
2023-04-04T01:04:17.722Z,75
2023-04-04T01:07:17.680Z,75
2023-04-04T01:10:17.685Z,75
2023-04-04T01:13:17.685Z,75
2023-04-04T01:16:17.716Z,75
2023-04-04T01:19:17.686Z,75
2023-04-04T01:25:17.682Z,75
2023-04-04T01:28:17.669Z,75
2023-04-04T01:31:17.733Z,75
2023-04-04T01:34:17.675Z,75
2023-04-04T01:37:17.670Z,76
2023-04-04T01:40:17.673Z,76
2023-04-04T01:43:17.676Z,76
2023-04-04T01:46:17.694Z,76
2023-04-04T01:49:17.657Z,76
2023-04-04T01:52:17.661Z,76
2023-04-04T01:55:17.663Z,76
2023-04-04T01:58:17.681Z,76
2023-04-04T02:01:17.668Z,76
2023-04-04T02:04:17.671Z,76
2023-04-04T02:07:17.665Z,76
2023-04-04T02:10:17.681Z,76
2023-04-04T02:13:17.669Z,76
2023-04-04T02:16:17.685Z,76
2023-04-04T02:19:17.670Z,76
2023-04-04T02:22:17.653Z,76
2023-04-04T02:25:17.656Z,76
2023-04-04T02:28:17.662Z,76
2023-04-04T02:31:17.670Z,76
2023-04-04T02:34:17.645Z,76
2023-04-04T02:37:17.649Z,76
2023-04-04T02:40:17.654Z,76
2023-04-04T02:43:17.652Z,76
2023-04-04T02:46:21.485Z,76
2023-04-04T02:49:17.652Z,76
2023-04-04T02:52:17.629Z,76
2023-04-04T02:55:17.658Z,77
2023-04-04T02:58:17.639Z,77
2023-04-04T03:01:17.694Z,77
2023-04-04T03:04:17.706Z,77
2023-04-04T03:07:17.650Z,77
2023-04-04T03:13:17.654Z,77
2023-04-04T03:16:17.674Z,77
2023-04-04T03:19:17.638Z,77
2023-04-04T03:22:17.627Z,77
2023-04-04T03:25:17.644Z,77
2023-04-04T03:28:17.642Z,77
2023-04-04T03:31:17.650Z,77
2023-04-04T03:34:17.630Z,77
2023-04-04T03:37:17.639Z,77
2023-04-04T03:40:17.634Z,77
2023-04-04T03:43:17.630Z,77
2023-04-04T03:46:17.657Z,77
2023-04-04T03:49:17.640Z,77
2023-04-04T03:52:17.627Z,77
2023-04-04T03:55:17.642Z,77
2023-04-04T03:58:17.623Z,77
2023-04-04T04:01:17.636Z,77
2023-04-04T04:04:17.674Z,77
2023-04-04T04:07:17.617Z,77
2023-04-04T04:10:17.615Z,77
2023-04-04T04:13:17.619Z,77
2023-04-04T04:16:17.629Z,77
2023-04-04T04:19:17.607Z,77
2023-04-04T04:22:17.608Z,77
2023-04-04T04:25:17.614Z,77
2023-04-04T04:28:17.610Z,77
2023-04-04T04:31:17.625Z,77
2023-04-04T04:37:17.607Z,77
2023-04-04T04:40:17.611Z,78
2023-04-04T04:46:17.636Z,78
2023-04-04T04:49:17.645Z,78
2023-04-04T04:52:17.609Z,78
2023-04-04T04:55:17.621Z,78
2023-04-04T04:58:17.597Z,78
2023-04-04T05:04:17.598Z,78
2023-04-04T05:07:17.595Z,78
2023-04-04T05:10:17.595Z,78
2023-04-04T05:13:17.594Z,78
2023-04-04T05:16:17.596Z,78
2023-04-04T05:19:17.618Z,78
2023-04-04T05:22:17.591Z,78
2023-04-04T05:25:17.608Z,78
2023-04-04T05:28:17.601Z,78
2023-04-04T05:31:17.592Z,78
2023-04-04T05:34:17.585Z,78
2023-04-04T05:37:17.586Z,78
2023-04-04T05:40:17.603Z,78
2023-04-04T05:43:17.587Z,78
2023-04-04T05:46:17.658Z,78
2023-04-04T05:49:17.601Z,78
2023-04-04T05:52:17.586Z,78
2023-04-04T05:55:17.598Z,78
2023-04-04T05:58:17.585Z,78
2023-04-04T06:01:17.592Z,78
2023-04-04T06:04:17.566Z,78
2023-04-04T06:07:17.586Z,79
2023-04-04T06:10:17.588Z,78
2023-04-04T06:13:17.581Z,79
2023-04-04T06:16:17.594Z,79
2023-04-04T06:19:17.934Z,78
2023-04-04T06:22:17.569Z,79
2023-04-04T06:25:17.573Z,78
2023-04-04T06:28:17.571Z,78
2023-04-04T06:31:17.609Z,78
2023-04-04T06:34:17.567Z,78
2023-04-04T06:37:17.554Z,78
2023-04-04T06:40:17.568Z,78
2023-04-04T06:43:17.574Z,78
2023-04-04T06:46:17.570Z,78
2023-04-04T06:49:17.570Z,78
2023-04-04T06:52:17.552Z,78
2023-04-04T06:55:17.626Z,78
2023-04-04T06:58:17.550Z,78
2023-04-04T07:01:17.571Z,78
2023-04-04T07:04:17.558Z,78
2023-04-04T07:07:17.552Z,78
2023-04-04T07:10:17.552Z,78
2023-04-04T07:13:17.547Z,78
2023-04-04T07:16:17.575Z,78
2023-04-04T07:19:17.572Z,77
2023-04-04T07:22:17.543Z,77
2023-04-04T07:25:17.547Z,77
2023-04-04T07:28:17.540Z,77
2023-04-04T07:31:17.545Z,77
2023-04-04T07:34:17.556Z,77
2023-04-04T07:37:17.541Z,77
2023-04-04T07:40:17.531Z,76
2023-04-04T07:43:17.542Z,76
2023-04-04T07:46:17.594Z,76
2023-04-04T07:49:17.532Z,76
2023-04-04T07:52:17.529Z,76
2023-04-04T07:55:17.538Z,76
2023-04-04T07:58:17.523Z,76
2023-04-04T08:01:17.530Z,76
2023-04-04T08:04:17.558Z,76
2023-04-04T08:07:17.525Z,76
2023-04-04T08:10:17.814Z,76
2023-04-04T08:13:17.530Z,76
2023-04-04T08:16:17.584Z,75
2023-04-04T08:19:17.530Z,75
2023-04-04T08:22:17.534Z,75
2023-04-04T08:25:17.559Z,75
2023-04-04T08:28:17.521Z,75
2023-04-04T08:31:17.574Z,75
2023-04-04T08:34:17.551Z,74
2023-04-04T08:37:17.538Z,74
2023-04-04T08:40:17.599Z,74
2023-04-04T08:43:17.528Z,74
2023-04-04T08:46:17.544Z,74
2023-04-04T08:49:17.704Z,74
2023-04-04T08:52:17.520Z,74
2023-04-04T08:55:17.541Z,73
2023-04-04T08:58:17.528Z,73
2023-04-04T09:01:17.567Z,73
2023-04-04T09:04:17.537Z,73
2023-04-04T09:07:17.535Z,73
2023-04-04T09:10:17.681Z,73
2023-04-04T09:13:17.524Z,73
2023-04-04T09:16:17.540Z,72
2023-04-04T09:19:17.525Z,72
2023-04-04T09:22:17.535Z,72
2023-04-04T09:25:17.532Z,72
2023-04-04T09:28:17.530Z,71
2023-04-04T09:31:17.540Z,71
2023-04-04T09:34:17.513Z,71
2023-04-04T09:37:17.513Z,71
2023-04-04T09:40:17.578Z,71
2023-04-04T09:43:17.515Z,71
2023-04-04T09:46:17.535Z,71
2023-04-04T09:49:17.514Z,70
2023-04-04T09:52:17.508Z,70
2023-04-04T09:55:17.514Z,70
2023-04-04T09:58:17.513Z,70
2023-04-04T10:01:17.552Z,70
2023-04-04T10:04:17.534Z,69
2023-04-04T10:07:17.510Z,69
2023-04-04T10:10:17.539Z,69
2023-04-04T10:13:17.520Z,69
2023-04-04T10:16:17.556Z,69
2023-04-04T10:19:17.490Z,68
2023-04-04T10:22:17.495Z,68
2023-04-04T10:25:17.537Z,68
2023-04-04T10:28:17.489Z,68
2023-04-04T10:31:17.537Z,68
2023-04-04T10:34:17.545Z,68
2023-04-04T10:37:17.493Z,67
2023-04-04T10:40:17.528Z,67
2023-04-04T10:43:17.484Z,67
2023-04-04T10:46:17.505Z,67
2023-04-04T10:49:17.483Z,67
2023-04-04T10:52:17.486Z,67
2023-04-04T10:55:17.498Z,67
2023-04-04T10:58:17.491Z,66
2023-04-04T11:01:17.491Z,66
2023-04-04T11:04:20.240Z,66
2023-04-04T11:07:17.509Z,66
2023-04-04T11:10:17.496Z,66
2023-04-04T11:13:17.483Z,66
2023-04-04T11:16:17.531Z,66
2023-04-04T11:19:17.488Z,65
2023-04-04T11:22:17.486Z,65
2023-04-04T11:25:17.472Z,65
2023-04-04T11:28:17.472Z,65
2023-04-04T11:31:17.481Z,65
2023-04-04T11:34:17.478Z,65
2023-04-04T11:37:17.472Z,65
2023-04-04T11:40:17.493Z,65
2023-04-04T11:43:17.460Z,64
2023-04-04T11:46:17.504Z,64
2023-04-04T11:49:17.504Z,64
2023-04-04T11:52:17.482Z,64
2023-04-04T11:55:17.451Z,64
2023-04-04T11:58:17.455Z,64
2023-04-04T12:01:17.460Z,64
2023-04-04T12:04:17.480Z,64
2023-04-04T12:07:17.469Z,63
2023-04-04T12:10:17.461Z,63
2023-04-04T12:13:17.469Z,63
2023-04-04T12:16:17.474Z,63
2023-04-04T12:19:17.470Z,63
2023-04-04T12:22:17.452Z,63
2023-04-04T12:25:17.463Z,63
2023-04-04T12:28:17.447Z,63
2023-04-04T12:31:17.469Z,63
2023-04-04T12:34:17.472Z,63
2023-04-04T12:37:17.442Z,62
2023-04-04T12:40:17.453Z,62
2023-04-04T12:43:17.456Z,62
2023-04-04T12:46:17.490Z,62
2023-04-04T12:49:17.434Z,62
2023-04-04T12:52:17.452Z,62
2023-04-04T12:55:17.444Z,63
2023-04-04T12:58:17.438Z,62
2023-04-04T13:01:17.485Z,62
2023-04-04T13:04:17.531Z,62
2023-04-04T13:07:17.449Z,62
2023-04-04T13:10:17.454Z,62
2023-04-04T13:13:17.439Z,62
2023-04-04T13:16:17.452Z,62
2023-04-04T13:19:17.439Z,62
2023-04-04T13:22:17.433Z,61
2023-04-04T13:25:17.440Z,61
2023-04-04T13:28:17.450Z,61
2023-04-04T13:31:17.525Z,61
2023-04-04T13:34:17.424Z,61
2023-04-04T13:37:17.423Z,61
2023-04-04T13:40:17.436Z,61
2023-04-04T13:43:17.446Z,61
2023-04-04T13:46:17.454Z,61
2023-04-04T13:49:17.426Z,61
2023-04-04T13:52:17.414Z,61
2023-04-04T13:55:17.421Z,60
2023-04-04T13:58:17.424Z,60
2023-04-04T14:01:17.424Z,60
2023-04-04T14:04:23.706Z,60
2023-04-04T14:07:17.400Z,60
2023-04-04T14:10:17.421Z,60
2023-04-04T14:13:17.412Z,60
2023-04-04T14:16:17.434Z,60
2023-04-04T14:19:17.404Z,60
2023-04-04T14:22:17.397Z,60
2023-04-04T14:25:17.408Z,60
2023-04-04T14:28:17.423Z,60
2023-04-04T14:31:17.434Z,60
2023-04-04T14:37:17.403Z,60
2023-04-04T14:40:17.419Z,60
2023-04-04T14:43:17.405Z,60
2023-04-04T14:46:17.413Z,60
2023-04-04T14:49:17.392Z,60
2023-04-04T14:52:17.391Z,60
2023-04-04T14:55:17.386Z,60
2023-04-04T14:58:17.407Z,60
2023-04-04T15:01:17.457Z,60
2023-04-04T15:04:17.421Z,60
2023-04-04T15:07:17.410Z,60
2023-04-04T15:10:17.418Z,60
2023-04-04T15:13:17.404Z,60
2023-04-04T15:16:17.412Z,60
2023-04-04T15:19:17.391Z,60
2023-04-04T15:22:17.401Z,60
2023-04-04T15:25:17.388Z,60
2023-04-04T15:28:17.385Z,60
2023-04-04T15:31:17.405Z,60
2023-04-04T15:34:17.417Z,60
2023-04-04T15:37:17.400Z,60
2023-04-04T15:40:17.420Z,60
2023-04-04T15:43:17.395Z,60
2023-04-04T15:46:17.479Z,60
2023-04-04T15:49:17.396Z,59
2023-04-04T15:52:17.386Z,60
2023-04-04T15:55:17.578Z,60
2023-04-04T15:58:17.392Z,60
2023-04-04T16:01:17.407Z,60
2023-04-04T16:04:17.392Z,60
2023-04-04T16:07:17.387Z,60
2023-04-04T16:10:17.389Z,60
2023-04-04T16:13:17.384Z,59
2023-04-04T16:16:17.381Z,60
2023-04-04T16:19:17.372Z,59
2023-04-04T16:22:17.384Z,60
2023-04-04T16:25:17.382Z,60
2023-04-04T16:28:17.380Z,60
2023-04-04T16:31:17.437Z,60
2023-04-04T16:34:17.372Z,59
2023-04-04T16:37:17.389Z,59
2023-04-04T16:40:17.383Z,59
2023-04-04T16:43:17.385Z,59
2023-04-04T16:46:17.391Z,59
2023-04-04T16:49:17.371Z,59
2023-04-04T16:52:17.368Z,59
2023-04-04T16:55:17.366Z,59
2023-04-04T16:58:17.372Z,59
2023-04-04T17:01:17.392Z,59
2023-04-04T17:04:17.427Z,59
2023-04-04T17:10:17.379Z,59
2023-04-04T17:13:17.347Z,60
2023-04-04T17:16:17.410Z,60
2023-04-04T17:19:17.342Z,60
2023-04-04T17:22:17.352Z,60
2023-04-04T17:25:17.350Z,60
2023-04-04T17:28:17.343Z,60
2023-04-04T17:31:17.352Z,60
2023-04-04T17:37:17.342Z,60
2023-04-04T17:40:17.348Z,60
2023-04-04T17:43:17.343Z,60
2023-04-04T17:46:17.376Z,60
2023-04-04T17:49:17.353Z,61
2023-04-04T17:52:17.343Z,61
2023-04-04T17:55:17.355Z,61
2023-04-04T17:58:17.349Z,61
2023-04-04T18:01:17.362Z,61
2023-04-04T18:04:17.358Z,61
2023-04-04T18:07:17.342Z,61
2023-04-04T18:10:17.383Z,61
2023-04-04T18:13:17.333Z,61
2023-04-04T18:19:17.330Z,61
2023-04-04T18:22:17.348Z,61
2023-04-04T18:25:17.346Z,61
2023-04-04T18:28:17.334Z,61
2023-04-04T18:31:17.346Z,62
2023-04-04T18:34:17.353Z,62
2023-04-04T18:37:17.333Z,62
2023-04-04T18:40:17.327Z,62
2023-04-04T18:43:17.326Z,62
2023-04-04T18:46:17.345Z,62
2023-04-04T18:49:17.318Z,62
2023-04-04T18:52:17.325Z,62
2023-04-04T18:55:17.365Z,62
2023-04-04T18:58:17.343Z,62
2023-04-04T19:01:17.354Z,63
2023-04-04T19:04:17.358Z,63
2023-04-04T19:07:17.327Z,63
2023-04-04T19:10:17.337Z,63
2023-04-04T19:13:17.352Z,63
2023-04-04T19:16:17.371Z,63
2023-04-04T19:19:17.325Z,63
2023-04-04T19:22:17.343Z,63
2023-04-04T19:25:17.324Z,63
2023-04-04T19:28:17.400Z,63
2023-04-04T19:31:17.398Z,63
2023-04-04T19:34:17.328Z,64
2023-04-04T19:40:17.347Z,64
2023-04-04T19:43:17.323Z,64
2023-04-04T19:46:17.357Z,64
2023-04-04T19:49:17.312Z,64
2023-04-04T19:52:17.323Z,64
2023-04-04T19:55:17.319Z,64
2023-04-04T19:58:17.373Z,64
2023-04-04T20:01:17.332Z,64
2023-04-04T20:04:17.323Z,64
2023-04-04T20:07:17.339Z,65
2023-04-04T20:10:17.353Z,65
2023-04-04T20:13:17.389Z,65
2023-04-04T20:16:17.495Z,65
2023-04-04T20:19:17.309Z,65
2023-04-04T20:22:17.312Z,65
2023-04-04T20:25:17.308Z,65
2023-04-04T20:28:17.337Z,65
2023-04-04T20:31:17.325Z,65
2023-04-04T20:34:17.296Z,65
2023-04-04T20:37:17.311Z,66
2023-04-04T20:40:17.305Z,66
2023-04-04T20:43:17.297Z,66
2023-04-04T20:46:17.313Z,66
2023-04-04T20:49:17.289Z,66
2023-04-04T20:52:17.310Z,66
2023-04-04T20:55:17.291Z,66
2023-04-04T20:58:17.289Z,66
2023-04-04T21:01:17.306Z,66
2023-04-04T21:04:17.292Z,66
2023-04-04T21:07:17.298Z,66
2023-04-04T21:13:17.300Z,66
2023-04-04T21:16:17.331Z,66
2023-04-04T21:19:17.283Z,66
2023-04-04T21:22:17.298Z,66
2023-04-04T21:25:17.286Z,66
2023-04-04T21:31:17.311Z,66
2023-04-04T21:34:17.279Z,66
2023-04-04T21:37:17.287Z,66
2023-04-04T21:40:17.280Z,66
2023-04-04T21:43:17.279Z,66
2023-04-04T21:46:17.343Z,66
2023-04-04T21:49:17.265Z,66
2023-04-04T21:52:17.290Z,66
2023-04-04T21:55:17.278Z,66
2023-04-04T21:58:17.307Z,66
2023-04-04T22:01:17.318Z,66
2023-04-04T22:04:17.281Z,66
2023-04-04T22:07:17.282Z,66
2023-04-04T22:10:17.268Z,66
2023-04-04T22:13:17.381Z,66
2023-04-04T22:16:17.341Z,66
2023-04-04T22:19:17.271Z,66
2023-04-04T22:22:17.273Z,66
2023-04-04T22:25:17.260Z,67
2023-04-04T22:28:17.261Z,67
2023-04-04T22:31:17.271Z,67
2023-04-04T22:34:17.255Z,67
2023-04-04T22:37:17.269Z,67
2023-04-04T22:40:17.264Z,67
2023-04-04T22:43:17.276Z,67
2023-04-04T22:46:17.259Z,67
2023-04-04T22:49:17.262Z,67
2023-04-04T22:52:17.256Z,67
2023-04-04T22:55:17.243Z,67
2023-04-04T22:58:17.263Z,68
2023-04-04T23:01:17.257Z,68
2023-04-04T23:04:17.288Z,68
2023-04-04T23:07:17.266Z,68
2023-04-04T23:10:17.246Z,68
2023-04-04T23:13:17.268Z,68
2023-04-04T23:16:17.297Z,68
2023-04-04T23:19:17.246Z,68
2023-04-04T23:22:17.249Z,68
2023-04-04T23:25:17.240Z,68
2023-04-04T23:28:17.237Z,68
2023-04-04T23:31:17.261Z,68
2023-04-04T23:34:17.250Z,68
2023-04-04T23:37:17.237Z,68
2023-04-04T23:40:17.243Z,68
2023-04-04T23:43:17.237Z,69
2023-04-04T23:46:17.257Z,69
2023-04-04T23:49:17.229Z,69
2023-04-04T23:52:17.221Z,69
2023-04-04T23:55:17.233Z,69
2023-04-04T23:58:17.244Z,69
